createdAt,value
2019-06-10T00:02:15.508Z,15.00
2019-06-10T00:04:50.830Z,14.90
2019-06-10T00:07:21.991Z,14.80
2019-06-10T00:09:52.101Z,14.80
2019-06-10T00:12:22.179Z,14.70
2019-06-10T00:15:01.871Z,14.60
2019-06-10T00:17:53.153Z,14.60
2019-06-10T00:20:11.940Z,14.50
2019-06-10T00:22:47.932Z,14.40
2019-06-10T00:25:18.299Z,14.40
2019-06-10T00:27:48.403Z,14.50
2019-06-10T00:30:20.850Z,14.50
2019-06-10T00:32:51.531Z,14.50
2019-06-10T00:35:21.808Z,14.50
2019-06-10T00:37:53.880Z,14.50
2019-06-10T00:40:24.913Z,14.40
2019-06-10T00:42:55.944Z,14.40
2019-06-10T00:45:27.239Z,14.30
2019-06-10T00:48:07.645Z,14.20
2019-06-10T00:50:30.908Z,14.20
2019-06-10T00:53:02.566Z,14.20
2019-06-10T00:55:34.833Z,14.20
2019-06-10T00:58:05.782Z,14.30
2019-06-10T01:00:36.020Z,14.30
2019-06-10T01:03:06.135Z,14.30
2019-06-10T01:05:36.303Z,14.30
2019-06-10T01:08:08.677Z,14.30
2019-06-10T01:10:38.780Z,14.30
2019-06-10T01:13:15.103Z,14.30
2019-06-10T01:15:45.847Z,14.20
2019-06-10T01:18:33.676Z,14.20
2019-06-10T01:20:47.835Z,14.20
2019-06-10T01:23:17.924Z,14.30
2019-06-10T01:25:48.019Z,14.30
2019-06-10T01:28:18.588Z,14.30
2019-06-10T01:30:48.704Z,14.30
2019-06-10T01:33:21.079Z,14.20
2019-06-10T01:35:53.644Z,14.20
2019-06-10T01:38:23.732Z,14.20
2019-06-10T01:40:53.832Z,14.20
2019-06-10T01:43:23.930Z,14.10
2019-06-10T01:45:54.024Z,14.00
2019-06-10T01:48:24.128Z,14.00
2019-06-10T01:50:54.216Z,14.00
2019-06-10T01:53:24.308Z,14.00
2019-06-10T01:56:00.844Z,14.00
2019-06-10T01:58:32.181Z,13.90
2019-06-10T02:01:06.496Z,13.90
2019-06-10T02:03:36.592Z,13.90
2019-06-10T02:06:16.593Z,13.80
2019-06-10T02:08:46.281Z,13.80
2019-06-10T02:11:18.737Z,13.80
2019-06-10T02:13:51.409Z,13.90
2019-06-10T02:16:23.996Z,13.90
2019-06-10T02:19:00.833Z,13.90
2019-06-10T02:21:31.016Z,13.90
2019-06-10T02:24:00.977Z,13.90
2019-06-10T02:26:31.164Z,13.80
2019-06-10T02:29:01.256Z,13.80
2019-06-10T02:31:37.558Z,13.80
2019-06-10T02:34:03.155Z,13.80
2019-06-10T02:36:36.906Z,13.80
2019-06-10T02:39:08.797Z,13.80
2019-06-10T02:41:44.638Z,13.90
2019-06-10T02:44:19.647Z,13.90
2019-06-10T02:46:48.681Z,13.90
2019-06-10T02:49:35.209Z,13.90
2019-06-10T02:51:53.748Z,13.90
2019-06-10T02:54:30.409Z,13.90
2019-06-10T02:56:55.128Z,13.90
2019-06-10T02:59:27.354Z,13.80
2019-06-10T03:01:57.030Z,13.80
2019-06-10T03:04:37.579Z,13.90
2019-06-10T03:07:15.943Z,13.80
2019-06-10T03:09:46.988Z,13.80
2019-06-10T03:12:19.721Z,13.70
2019-06-10T03:14:56.636Z,13.70
2019-06-10T03:17:28.680Z,13.70
2019-06-10T03:20:07.985Z,13.80
2019-06-10T03:22:45.923Z,13.80
2019-06-10T03:25:18.351Z,13.80
2019-06-10T03:27:48.478Z,13.80
2019-06-10T03:30:49.623Z,13.90
2019-06-10T03:33:13.724Z,13.90
2019-06-10T03:35:52.800Z,13.90
2019-06-10T03:38:28.953Z,14.00
2019-06-10T03:41:05.008Z,14.00
2019-06-10T03:43:37.085Z,14.10
2019-06-10T03:46:13.708Z,14.00
2019-06-10T03:48:43.980Z,14.00
2019-06-10T03:51:17.164Z,13.90
2019-06-10T03:53:48.313Z,13.80
2019-06-10T03:56:19.149Z,13.90
2019-06-10T03:58:49.266Z,13.90
2019-06-10T04:01:19.484Z,13.90
2019-06-10T04:03:53.036Z,13.80
2019-06-10T04:06:27.301Z,13.90
2019-06-10T04:09:02.878Z,13.90
2019-06-10T04:11:43.171Z,14.00
2019-06-10T04:14:13.452Z,14.00
2019-06-10T04:16:44.481Z,14.10
2019-06-10T04:19:14.576Z,14.10
2019-06-10T04:21:44.676Z,14.10
2019-06-10T04:24:14.776Z,14.10
2019-06-10T04:26:44.868Z,14.10
2019-06-10T04:29:14.990Z,14.10
2019-06-10T04:31:45.088Z,14.20
2019-06-10T04:34:15.205Z,14.20
2019-06-10T04:36:46.237Z,14.20
2019-06-10T04:39:18.493Z,14.20
2019-06-10T04:41:49.540Z,14.30
2019-06-10T04:44:21.223Z,14.30
2019-06-10T04:46:59.509Z,14.40
2019-06-10T04:49:43.657Z,14.40
2019-06-10T04:52:13.757Z,14.50
2019-06-10T04:54:43.853Z,14.60
2019-06-10T04:57:15.953Z,14.70
2019-06-10T04:59:46.041Z,14.70
2019-06-10T05:02:16.130Z,14.80
2019-06-10T05:04:46.225Z,14.90
2019-06-10T05:07:19.006Z,15.00
2019-06-10T05:09:52.390Z,15.20
2019-06-10T05:12:32.771Z,15.40
2019-06-10T05:15:06.438Z,15.60
2019-06-10T05:17:36.529Z,15.80
2019-06-10T05:20:09.638Z,15.90
2019-06-10T05:22:42.407Z,16.10
2019-06-10T05:25:13.061Z,16.20
2019-06-10T05:27:43.171Z,16.30
2019-06-10T05:30:14.830Z,16.40
2019-06-10T05:32:44.913Z,16.50
2019-06-10T05:35:16.004Z,16.50
2019-06-10T05:37:46.089Z,16.60
2019-06-10T05:40:25.128Z,16.70
2019-06-10T05:42:55.929Z,16.80
2019-06-10T05:45:27.569Z,16.90
2019-06-10T05:48:03.959Z,17.10
2019-06-10T05:50:35.192Z,17.20
2019-06-10T05:53:05.215Z,17.30
2019-06-10T05:55:35.461Z,17.40
2019-06-10T05:58:05.625Z,17.60
2019-06-10T06:00:35.754Z,17.60
2019-06-10T06:03:05.884Z,17.60
2019-06-10T06:05:37.577Z,17.70
2019-06-10T06:08:09.035Z,17.70
2019-06-10T06:10:42.274Z,18.00
2019-06-10T06:13:23.244Z,18.10
2019-06-10T06:15:55.169Z,18.40
2019-06-10T06:18:26.245Z,18.60
2019-06-10T06:20:58.845Z,18.80
2019-06-10T06:23:28.933Z,18.90
2019-06-10T06:25:59.018Z,19.00
2019-06-10T06:28:33.967Z,19.00
2019-06-10T06:31:03.671Z,19.00
2019-06-10T06:33:43.238Z,19.00
2019-06-10T06:36:13.674Z,18.90
2019-06-10T06:38:43.993Z,19.00
2019-06-10T06:41:14.013Z,19.20
2019-06-10T06:43:45.563Z,19.20
2019-06-10T06:46:16.669Z,19.20
2019-06-10T06:48:49.869Z,19.20
2019-06-10T06:51:35.476Z,19.40
2019-06-10T06:53:56.377Z,19.40
2019-06-10T06:56:26.573Z,19.40
2019-06-10T06:58:57.601Z,19.40
2019-06-10T07:01:34.376Z,19.40
2019-06-10T07:04:02.616Z,19.40
2019-06-10T07:06:37.445Z,19.30
2019-06-10T07:09:08.804Z,19.20
2019-06-10T07:11:45.239Z,19.20
2019-06-10T07:14:13.982Z,19.00
2019-06-10T07:16:46.834Z,18.90
2019-06-10T07:19:17.026Z,18.80
2019-06-10T07:22:05.317Z,18.70
2019-06-10T07:24:18.894Z,18.70
2019-06-10T07:26:52.107Z,18.70
2019-06-10T07:29:22.595Z,18.70
2019-06-10T07:32:03.352Z,18.80
2019-06-10T07:34:36.384Z,18.90
2019-06-10T07:37:05.369Z,18.90
2019-06-10T07:39:36.841Z,19.10
2019-06-10T07:42:07.243Z,19.20
2019-06-10T07:44:37.597Z,19.40
2019-06-10T07:47:07.689Z,19.50
2019-06-10T07:49:39.195Z,19.70
2019-06-10T07:52:15.647Z,19.90
2019-06-10T07:54:43.730Z,20.20
2019-06-10T07:57:13.032Z,20.40
2019-06-10T07:59:45.789Z,20.70
2019-06-10T08:02:14.930Z,20.90
2019-06-10T08:04:46.092Z,21.20
2019-06-10T08:07:19.553Z,21.40
2019-06-10T08:09:53.095Z,21.30
2019-06-10T08:12:23.300Z,21.00
2019-06-10T08:15:08.090Z,20.80
2019-06-10T08:17:38.401Z,20.50
2019-06-10T08:20:09.965Z,20.10
2019-06-10T08:22:50.228Z,20.00
2019-06-10T08:25:14.077Z,19.90
2019-06-10T08:27:47.385Z,19.80
2019-06-10T08:30:23.050Z,19.70
2019-06-10T08:32:53.188Z,19.60
2019-06-10T08:35:37.733Z,19.50
2019-06-10T08:37:53.098Z,19.40
2019-06-10T08:40:24.180Z,19.40
2019-06-10T08:42:56.239Z,19.40
2019-06-10T08:45:27.422Z,19.20
2019-06-10T08:47:57.503Z,19.10
2019-06-10T08:50:33.830Z,19.00
2019-06-10T08:53:13.884Z,19.00
2019-06-10T08:55:37.411Z,19.10
2019-06-10T08:58:07.426Z,19.10
2019-06-10T09:00:39.161Z,19.10
2019-06-10T09:03:09.733Z,19.30
2019-06-10T09:05:41.950Z,19.60
2019-06-10T09:08:13.508Z,20.30
2019-06-10T09:10:47.747Z,21.30
2019-06-10T09:13:16.334Z,22.30
2019-06-10T09:16:04.790Z,23.20
2019-06-10T09:18:23.084Z,24.40
2019-06-10T09:20:55.675Z,25.40
2019-06-10T09:23:25.599Z,25.40
2019-06-10T09:25:57.664Z,25.30
2019-06-10T09:28:28.393Z,25.60
2019-06-10T09:30:59.514Z,26.10
2019-06-10T09:33:35.686Z,26.30
2019-06-10T09:36:06.242Z,26.10
2019-06-10T09:38:36.322Z,26.10
2019-06-10T09:41:08.633Z,26.50
2019-06-10T09:43:40.469Z,26.90
2019-06-10T09:46:12.739Z,28.40
2019-06-10T09:48:47.075Z,29.30
2019-06-10T09:51:14.980Z,29.90
2019-06-10T09:53:52.387Z,29.70
2019-06-10T09:56:17.837Z,29.60
2019-06-10T09:58:49.685Z,29.50
2019-06-10T10:01:19.775Z,28.70
2019-06-10T10:03:58.305Z,27.90
2019-06-10T10:06:26.470Z,27.50
2019-06-10T10:08:58.160Z,26.30
2019-06-10T10:11:31.955Z,26.00
2019-06-10T10:14:06.245Z,25.90
2019-06-10T10:16:40.863Z,25.60
2019-06-10T10:19:13.273Z,25.00
2019-06-10T10:21:46.926Z,24.00
2019-06-10T10:24:16.107Z,24.00
2019-06-10T10:26:49.968Z,24.20
2019-06-10T10:29:19.769Z,24.50
2019-06-10T10:31:52.690Z,25.00
2019-06-10T10:34:23.659Z,25.60
2019-06-10T10:36:57.248Z,26.60
2019-06-10T10:39:27.065Z,26.90
2019-06-10T10:41:57.460Z,26.80
2019-06-10T10:44:27.497Z,26.80
2019-06-10T10:46:57.565Z,26.80
2019-06-10T10:49:27.649Z,27.30
2019-06-10T10:51:57.750Z,27.90
2019-06-10T10:54:33.912Z,27.50
2019-06-10T10:56:59.681Z,28.60
2019-06-10T10:59:29.751Z,28.60
2019-06-10T11:02:02.185Z,29.40
2019-06-10T11:04:33.093Z,30.70
2019-06-10T11:07:03.152Z,31.70
2019-06-10T11:09:33.318Z,32.20
2019-06-10T11:12:04.997Z,32.80
2019-06-10T11:14:35.217Z,33.70
2019-06-10T11:17:06.277Z,34.30
2019-06-10T11:19:36.359Z,34.30
2019-06-10T11:22:07.417Z,33.90
2019-06-10T11:24:41.199Z,34.40
2019-06-10T11:27:09.282Z,33.40
2019-06-10T11:29:42.250Z,33.40
2019-06-10T11:32:12.117Z,33.90
2019-06-10T11:34:42.906Z,33.30
2019-06-10T11:37:13.079Z,32.70
2019-06-10T11:39:43.539Z,33.60
2019-06-10T11:42:14.621Z,35.20
2019-06-10T11:44:46.367Z,35.00
2019-06-10T11:47:18.342Z,33.70
2019-06-10T11:49:54.971Z,31.80
2019-06-10T11:52:24.299Z,30.60
2019-06-10T11:55:10.912Z,30.40
2019-06-10T11:57:33.049Z,31.80
2019-06-10T12:00:17.063Z,34.50
2019-06-10T12:02:57.275Z,35.00
2019-06-10T12:05:32.441Z,34.50
2019-06-10T12:08:12.979Z,34.30
2019-06-10T12:10:43.421Z,34.40
2019-06-10T12:13:15.558Z,35.40
2019-06-10T12:16:30.738Z,37.40
2019-06-10T12:18:17.434Z,37.80
2019-06-10T12:20:47.534Z,37.80
2019-06-10T12:23:17.611Z,38.00
2019-06-10T12:25:48.227Z,37.60
2019-06-10T12:28:18.327Z,37.40
2019-06-10T12:30:48.475Z,38.30
2019-06-10T12:33:21.553Z,38.10
2019-06-10T12:35:54.886Z,37.10
2019-06-10T12:38:23.110Z,37.60
2019-06-10T12:40:56.890Z,37.10
2019-06-10T12:43:24.972Z,35.20
2019-06-10T12:45:57.166Z,33.80
2019-06-10T12:48:27.004Z,33.40
2019-06-10T12:50:58.671Z,33.20
2019-06-10T12:53:32.387Z,32.30
2019-06-10T12:56:08.141Z,31.40
2019-06-10T12:58:33.724Z,31.40
2019-06-10T13:01:06.098Z,31.90
2019-06-10T13:03:35.630Z,32.70
2019-06-10T13:06:18.706Z,33.10
2019-06-10T13:08:49.626Z,33.30
2019-06-10T13:11:19.718Z,33.10
2019-06-10T13:14:05.123Z,32.90
2019-06-10T13:16:35.457Z,32.80
2019-06-10T13:19:06.577Z,32.30
2019-06-10T13:21:37.370Z,32.00
2019-06-10T13:24:07.896Z,32.40
2019-06-10T13:26:40.008Z,32.90
2019-06-10T13:29:10.698Z,32.00
2019-06-10T13:31:43.564Z,32.60
2019-06-10T13:34:14.911Z,33.80
2019-06-10T13:36:48.060Z,35.70
2019-06-10T13:39:22.314Z,35.70
2019-06-10T13:41:53.181Z,36.20
2019-06-10T13:44:23.325Z,36.80
2019-06-10T13:46:55.406Z,37.60
2019-06-10T13:49:26.525Z,38.70
2019-06-10T13:51:56.651Z,39.60
2019-06-10T13:54:26.730Z,40.00
2019-06-10T13:57:05.362Z,40.00
2019-06-10T13:59:35.406Z,40.00
2019-06-10T14:02:08.541Z,39.50
2019-06-10T14:04:37.415Z,39.70
2019-06-10T14:07:12.133Z,39.80
2019-06-10T14:09:43.340Z,40.00
2019-06-10T14:12:17.347Z,40.70
2019-06-10T14:14:45.262Z,39.40
2019-06-10T14:17:19.006Z,38.10
2019-06-10T14:19:47.647Z,38.50
2019-06-10T14:22:17.690Z,39.10
2019-06-10T14:24:47.766Z,38.80
2019-06-10T14:27:21.461Z,38.70
2019-06-10T14:29:52.752Z,37.60
2019-06-10T14:32:22.552Z,36.40
2019-06-10T14:34:52.871Z,34.20
2019-06-10T14:37:33.107Z,31.60
2019-06-10T14:39:54.702Z,30.20
2019-06-10T14:42:27.788Z,29.30
2019-06-10T14:44:58.638Z,29.00
2019-06-10T14:47:28.719Z,28.80
2019-06-10T14:50:03.346Z,28.80
2019-06-10T14:52:33.799Z,28.80
2019-06-10T14:55:07.565Z,28.70
2019-06-10T14:57:37.643Z,27.90
2019-06-10T15:00:13.195Z,27.00
2019-06-10T15:02:42.987Z,26.70
2019-06-10T15:05:20.090Z,26.30
2019-06-10T15:07:52.677Z,26.10
2019-06-10T15:10:23.313Z,25.90
2019-06-10T15:12:54.508Z,25.80
2019-06-10T15:15:24.794Z,26.80
2019-06-10T15:17:54.871Z,27.00
2019-06-10T15:20:26.958Z,26.70
2019-06-10T15:22:58.983Z,25.70
2019-06-10T15:25:48.230Z,25.10
2019-06-10T15:28:03.235Z,24.40
2019-06-10T15:30:34.329Z,23.80
2019-06-10T15:33:04.452Z,23.60
2019-06-10T15:35:34.511Z,23.40
2019-06-10T15:38:05.530Z,23.40
2019-06-10T15:40:35.602Z,23.10
2019-06-10T15:43:06.397Z,23.00
2019-06-10T15:45:36.532Z,22.80
2019-06-10T15:48:08.418Z,22.70
2019-06-10T15:50:38.503Z,22.50
2019-06-10T15:53:11.096Z,22.20
2019-06-10T15:56:09.101Z,22.10
2019-06-10T15:58:15.682Z,22.00
2019-06-10T16:00:45.867Z,21.80
2019-06-10T16:03:17.420Z,21.50
2019-06-10T16:05:47.799Z,21.30
2019-06-10T16:08:18.559Z,21.20
2019-06-10T16:10:52.253Z,21.10
2019-06-10T16:13:25.163Z,20.90
2019-06-10T16:15:54.115Z,20.80
2019-06-10T16:18:27.795Z,20.70
2019-06-10T16:20:56.027Z,20.70
2019-06-10T16:23:26.791Z,20.60
2019-06-10T16:25:57.963Z,20.40
2019-06-10T16:28:28.030Z,20.30
2019-06-10T16:30:58.124Z,20.20
2019-06-10T16:33:28.204Z,20.10
2019-06-10T16:36:02.721Z,20.00
2019-06-10T16:38:42.162Z,19.90
2019-06-10T16:41:12.371Z,19.70
2019-06-10T16:43:42.940Z,19.70
2019-06-10T16:46:29.064Z,19.60
2019-06-10T16:49:03.210Z,19.50
2019-06-10T16:51:34.903Z,19.30
2019-06-10T16:54:05.351Z,19.10
2019-06-10T16:56:35.436Z,18.90
2019-06-10T16:59:06.473Z,18.80
2019-06-10T17:01:36.543Z,18.80
2019-06-10T17:04:06.931Z,18.70
2019-06-10T17:06:38.938Z,18.70
2019-06-10T17:09:10.307Z,18.60
2019-06-10T17:11:42.609Z,18.60
2019-06-10T17:14:12.932Z,18.70
2019-06-10T17:16:43.011Z,18.80
2019-06-10T17:19:16.255Z,18.70
2019-06-10T17:21:46.347Z,18.70
2019-06-10T17:24:17.383Z,18.50
2019-06-10T17:26:47.599Z,18.50
2019-06-10T17:29:19.578Z,18.40
2019-06-10T17:31:49.683Z,18.30
2019-06-10T17:34:22.289Z,18.20
2019-06-10T17:36:53.643Z,18.10
2019-06-10T17:39:26.413Z,17.90
2019-06-10T17:41:56.107Z,17.80
2019-06-10T17:44:38.209Z,17.70
2019-06-10T17:47:08.284Z,17.60
2019-06-10T17:49:38.379Z,17.60
2019-06-10T17:52:12.793Z,17.50
2019-06-10T17:54:42.198Z,17.40
2019-06-10T17:57:12.852Z,17.30
2019-06-10T17:59:44.059Z,17.20
2019-06-10T18:02:14.132Z,17.00
2019-06-10T18:04:44.209Z,16.90
2019-06-10T18:07:14.291Z,16.70
2019-06-10T18:09:44.375Z,16.60
2019-06-10T18:12:14.456Z,16.60
2019-06-10T18:14:44.532Z,16.50
2019-06-10T18:17:15.608Z,16.50
2019-06-10T18:19:46.639Z,16.40
2019-06-10T18:22:16.717Z,16.40
2019-06-10T18:24:46.799Z,16.40
2019-06-10T18:27:18.750Z,16.40
2019-06-10T18:29:56.751Z,16.40
2019-06-10T18:32:27.460Z,16.30
2019-06-10T18:34:58.527Z,16.20
2019-06-10T18:37:28.659Z,16.20
2019-06-10T18:39:58.747Z,16.20
2019-06-10T18:42:31.193Z,16.20
2019-06-10T18:45:02.784Z,16.10
2019-06-10T18:47:42.168Z,16.10
2019-06-10T18:50:13.889Z,16.00
2019-06-10T18:52:45.933Z,16.00
2019-06-10T18:55:23.912Z,15.90
2019-06-10T18:57:53.991Z,15.90
2019-06-10T19:00:24.587Z,15.80
2019-06-10T19:03:09.289Z,15.90
2019-06-10T19:05:28.521Z,15.90
2019-06-10T19:08:02.301Z,15.80
2019-06-10T19:10:34.314Z,15.80
2019-06-10T19:13:04.755Z,15.70
2019-06-10T19:15:35.759Z,15.70
2019-06-10T19:18:06.155Z,15.70
2019-06-10T19:20:39.109Z,15.70
2019-06-10T19:23:16.864Z,15.70
2019-06-10T19:25:46.945Z,15.60
2019-06-10T19:28:17.019Z,15.60
2019-06-10T19:30:47.177Z,15.50
2019-06-10T19:33:17.263Z,15.50
2019-06-10T19:35:47.353Z,15.50
2019-06-10T19:38:17.434Z,15.40
2019-06-10T19:40:47.512Z,15.40
2019-06-10T19:43:17.605Z,15.40
2019-06-10T19:45:48.881Z,15.30
2019-06-10T19:48:19.061Z,15.30
2019-06-10T19:50:53.889Z,15.30
2019-06-10T19:53:24.228Z,15.30
2019-06-10T19:55:54.316Z,15.40
2019-06-10T19:58:26.412Z,15.40
2019-06-10T20:00:57.443Z,15.30
2019-06-10T20:03:27.541Z,15.30
2019-06-10T20:05:57.623Z,15.30
2019-06-10T20:08:27.707Z,15.20
2019-06-10T20:10:57.788Z,15.20
2019-06-10T20:13:27.880Z,15.20
2019-06-10T20:15:58.105Z,15.10
2019-06-10T20:18:28.200Z,15.10
2019-06-10T20:20:58.292Z,15.10
2019-06-10T20:23:29.347Z,15.10
2019-06-10T20:25:59.427Z,15.00
2019-06-10T20:28:31.985Z,15.00
2019-06-10T20:31:01.300Z,15.00
2019-06-10T20:33:36.277Z,15.00
2019-06-10T20:36:07.603Z,14.80
2019-06-10T20:38:38.324Z,14.80
2019-06-10T20:41:15.428Z,14.80
2019-06-10T20:43:47.107Z,14.80
2019-06-10T20:46:23.525Z,14.70
2019-06-10T20:48:54.561Z,14.70
2019-06-10T20:51:27.311Z,14.70
2019-06-10T20:53:56.595Z,14.60
2019-06-10T20:56:26.692Z,14.60
2019-06-10T20:58:56.793Z,14.60
2019-06-10T21:01:29.904Z,14.60
2019-06-10T21:04:18.888Z,14.70
2019-06-10T21:06:53.140Z,14.60
2019-06-10T21:09:32.698Z,14.60
2019-06-10T21:12:09.892Z,14.60
2019-06-10T21:14:47.236Z,14.60
2019-06-10T21:17:26.628Z,14.60
2019-06-10T21:19:56.724Z,14.60
2019-06-10T21:22:26.807Z,14.60
2019-06-10T21:24:58.827Z,14.60
2019-06-10T21:27:28.930Z,14.60
2019-06-10T21:29:59.032Z,14.50
2019-06-10T21:32:38.916Z,14.50
2019-06-10T21:35:11.990Z,14.50
2019-06-10T21:37:45.234Z,14.50
2019-06-10T21:40:15.252Z,14.60
2019-06-10T21:42:46.350Z,14.60
2019-06-10T21:45:16.647Z,14.70
2019-06-10T21:47:53.347Z,14.70
2019-06-10T21:50:24.492Z,14.80
2019-06-10T21:52:54.752Z,14.90
2019-06-10T21:55:24.836Z,14.90
2019-06-10T21:57:56.888Z,15.00
2019-06-10T22:00:30.680Z,15.00
2019-06-10T22:03:04.388Z,15.10
2019-06-10T22:05:39.465Z,15.10
2019-06-10T22:08:09.560Z,15.10
2019-06-10T22:10:39.658Z,15.10
2019-06-10T22:13:12.759Z,15.00
2019-06-10T22:15:44.224Z,15.00
2019-06-10T22:18:14.428Z,15.00
2019-06-10T22:20:44.913Z,15.00
2019-06-10T22:23:15.786Z,15.00
2019-06-10T22:25:46.820Z,15.00
2019-06-10T22:28:16.959Z,15.10
2019-06-10T22:30:49.035Z,15.00
2019-06-10T22:33:22.508Z,15.00
2019-06-10T22:35:54.537Z,15.00
2019-06-10T22:38:24.836Z,15.00
2019-06-10T22:40:56.931Z,15.00
2019-06-10T22:43:33.635Z,15.00
2019-06-10T22:46:04.168Z,15.00
2019-06-10T22:48:34.267Z,15.00
2019-06-10T22:51:05.352Z,14.90
2019-06-10T22:53:35.440Z,14.90
2019-06-10T22:56:05.550Z,14.90
2019-06-10T22:58:37.640Z,14.90
2019-06-10T23:01:12.477Z,14.90
2019-06-10T23:03:42.684Z,14.90
2019-06-10T23:06:23.009Z,14.90
2019-06-10T23:08:54.764Z,15.00
2019-06-10T23:11:25.193Z,14.90
2019-06-10T23:13:59.636Z,14.90
2019-06-10T23:16:30.688Z,14.90
2019-06-10T23:19:02.907Z,14.90
2019-06-10T23:21:33.493Z,15.00
2019-06-10T23:24:04.528Z,15.00
2019-06-10T23:26:35.562Z,15.00
2019-06-10T23:29:12.445Z,15.00
2019-06-10T23:31:52.218Z,15.00
2019-06-10T23:34:20.578Z,15.00
2019-06-10T23:36:58.740Z,15.00
2019-06-10T23:39:29.141Z,15.00
2019-06-10T23:41:59.556Z,15.00
2019-06-10T23:44:32.991Z,15.00
2019-06-10T23:47:09.933Z,15.00
2019-06-10T23:49:54.073Z,15.00
2019-06-10T23:52:24.164Z,14.90
2019-06-10T23:54:54.453Z,14.90
2019-06-10T23:57:24.533Z,14.80
2019-06-10T23:59:55.608Z,14.80
